sensor_id;sensor_type;location;lat;lon;timestamp;P1;durP1;ratioP1;P2;durP2;ratioP2
31594;SDS011;18200;48.726;8.892;2024-01-25T00:00:50;22.00;;;4.05;;
31594;SDS011;18200;48.726;8.892;2024-01-25T00:04:50;25.33;;;4.40;;
31594;SDS011;18200;48.726;8.892;2024-01-25T00:08:51;33.83;;;5.13;;
31594;SDS011;18200;48.726;8.892;2024-01-25T00:12:51;36.65;;;5.32;;
31594;SDS011;18200;48.726;8.892;2024-01-25T00:16:51;39.45;;;4.95;;
31594;SDS011;18200;48.726;8.892;2024-01-25T00:20:52;27.25;;;4.75;;
31594;SDS011;18200;48.726;8.892;2024-01-25T00:24:52;38.47;;;5.68;;
31594;SDS011;18200;48.726;8.892;2024-01-25T00:28:52;29.25;;;4.57;;
31594;SDS011;18200;48.726;8.892;2024-01-25T00:32:53;36.65;;;4.57;;
31594;SDS011;18200;48.726;8.892;2024-01-25T00:36:53;37.03;;;4.63;;
31594;SDS011;18200;48.726;8.892;2024-01-25T00:40:54;27.52;;;4.50;;
31594;SDS011;18200;48.726;8.892;2024-01-25T00:44:55;30.00;;;4.88;;
31594;SDS011;18200;48.726;8.892;2024-01-25T00:48:55;23.60;;;3.80;;
31594;SDS011;18200;48.726;8.892;2024-01-25T00:52:56;27.58;;;4.13;;
31594;SDS011;18200;48.726;8.892;2024-01-25T00:56:57;25.33;;;4.43;;
31594;SDS011;18200;48.726;8.892;2024-01-25T01:00:57;26.60;;;4.45;;
31594;SDS011;18200;48.726;8.892;2024-01-25T01:04:58;22.90;;;3.88;;
31594;SDS011;18200;48.726;8.892;2024-01-25T01:08:58;24.77;;;4.10;;
31594;SDS011;18200;48.726;8.892;2024-01-25T01:12:59;29.50;;;4.70;;
31594;SDS011;18200;48.726;8.892;2024-01-25T01:16:59;28.02;;;4.65;;
31594;SDS011;18200;48.726;8.892;2024-01-25T01:21:00;25.77;;;4.60;;
31594;SDS011;18200;48.726;8.892;2024-01-25T01:25:00;35.03;;;4.82;;
31594;SDS011;18200;48.726;8.892;2024-01-25T01:29:00;24.10;;;4.43;;
31594;SDS011;18200;48.726;8.892;2024-01-25T01:33:01;32.70;;;4.50;;
31594;SDS011;18200;48.726;8.892;2024-01-25T01:37:01;27.58;;;3.97;;
31594;SDS011;18200;48.726;8.892;2024-01-25T01:41:02;25.70;;;4.30;;
31594;SDS011;18200;48.726;8.892;2024-01-25T01:45:02;29.83;;;4.10;;
31594;SDS011;18200;48.726;8.892;2024-01-25T01:49:12;26.08;;;4.45;;
31594;SDS011;18200;48.726;8.892;2024-01-25T01:53:13;30.83;;;4.30;;
31594;SDS011;18200;48.726;8.892;2024-01-25T01:57:15;28.00;;;4.10;;
31594;SDS011;18200;48.726;8.892;2024-01-25T02:01:15;20.58;;;3.40;;
31594;SDS011;18200;48.726;8.892;2024-01-25T02:05:16;32.33;;;4.10;;
31594;SDS011;18200;48.726;8.892;2024-01-25T02:09:16;29.20;;;3.90;;
31594;SDS011;18200;48.726;8.892;2024-01-25T02:13:17;27.90;;;4.63;;
31594;SDS011;18200;48.726;8.892;2024-01-25T02:17:17;27.52;;;5.38;;
31594;SDS011;18200;48.726;8.892;2024-01-25T02:21:18;26.45;;;4.40;;
31594;SDS011;18200;48.726;8.892;2024-01-25T02:25:19;28.13;;;4.55;;
31594;SDS011;18200;48.726;8.892;2024-01-25T02:29:19;30.83;;;4.88;;
31594;SDS011;18200;48.726;8.892;2024-01-25T02:33:19;25.05;;;4.18;;
31594;SDS011;18200;48.726;8.892;2024-01-25T02:37:20;30.17;;;4.90;;
31594;SDS011;18200;48.726;8.892;2024-01-25T02:41:20;33.38;;;4.32;;
31594;SDS011;18200;48.726;8.892;2024-01-25T02:45:20;32.30;;;5.00;;
31594;SDS011;18200;48.726;8.892;2024-01-25T02:49:21;29.83;;;4.88;;
31594;SDS011;18200;48.726;8.892;2024-01-25T02:53:21;30.77;;;4.68;;
31594;SDS011;18200;48.726;8.892;2024-01-25T02:57:21;27.77;;;4.90;;
31594;SDS011;18200;48.726;8.892;2024-01-25T03:01:23;39.25;;;5.47;;
31594;SDS011;18200;48.726;8.892;2024-01-25T03:05:23;33.85;;;4.93;;
31594;SDS011;18200;48.726;8.892;2024-01-25T03:09:23;27.52;;;4.75;;
31594;SDS011;18200;48.726;8.892;2024-01-25T03:13:24;25.85;;;3.75;;
31594;SDS011;18200;48.726;8.892;2024-01-25T03:17:24;28.20;;;3.90;;
31594;SDS011;18200;48.726;8.892;2024-01-25T03:21:25;26.73;;;4.45;;
31594;SDS011;18200;48.726;8.892;2024-01-25T03:25:26;28.52;;;4.47;;
31594;SDS011;18200;48.726;8.892;2024-01-25T03:29:26;24.08;;;4.10;;
31594;SDS011;18200;48.726;8.892;2024-01-25T03:33:26;16.73;;;3.67;;
31594;SDS011;18200;48.726;8.892;2024-01-25T03:37:28;28.02;;;4.45;;
31594;SDS011;18200;48.726;8.892;2024-01-25T03:41:28;28.25;;;3.92;;
31594;SDS011;18200;48.726;8.892;2024-01-25T03:45:29;25.83;;;3.92;;
31594;SDS011;18200;48.726;8.892;2024-01-25T03:49:30;18.02;;;3.20;;
31594;SDS011;18200;48.726;8.892;2024-01-25T03:53:30;28.63;;;4.10;;
31594;SDS011;18200;48.726;8.892;2024-01-25T03:57:31;24.40;;;3.53;;
31594;SDS011;18200;48.726;8.892;2024-01-25T04:01:31;34.40;;;5.28;;
31594;SDS011;18200;48.726;8.892;2024-01-25T04:05:31;20.05;;;4.28;;
31594;SDS011;18200;48.726;8.892;2024-01-25T04:09:32;22.88;;;5.30;;
31594;SDS011;18200;48.726;8.892;2024-01-25T04:13:32;25.75;;;4.07;;
31594;SDS011;18200;48.726;8.892;2024-01-25T04:17:32;31.40;;;4.25;;
31594;SDS011;18200;48.726;8.892;2024-01-25T04:21:33;27.58;;;4.38;;
31594;SDS011;18200;48.726;8.892;2024-01-25T04:25:33;27.25;;;5.38;;
31594;SDS011;18200;48.726;8.892;2024-01-25T04:29:33;26.60;;;3.92;;
31594;SDS011;18200;48.726;8.892;2024-01-25T04:33:34;26.83;;;4.82;;
31594;SDS011;18200;48.726;8.892;2024-01-25T04:37:34;26.10;;;4.88;;
31594;SDS011;18200;48.726;8.892;2024-01-25T04:41:35;22.90;;;4.53;;
31594;SDS011;18200;48.726;8.892;2024-01-25T04:45:36;30.30;;;4.53;;
31594;SDS011;18200;48.726;8.892;2024-01-25T04:49:37;28.48;;;4.85;;
31594;SDS011;18200;48.726;8.892;2024-01-25T04:53:37;33.63;;;5.93;;
31594;SDS011;18200;48.726;8.892;2024-01-25T04:57:37;34.58;;;4.57;;
31594;SDS011;18200;48.726;8.892;2024-01-25T05:01:38;31.90;;;5.10;;
31594;SDS011;18200;48.726;8.892;2024-01-25T05:05:38;34.30;;;5.28;;
31594;SDS011;18200;48.726;8.892;2024-01-25T05:09:39;30.30;;;5.63;;
31594;SDS011;18200;48.726;8.892;2024-01-25T05:13:39;34.90;;;5.15;;
31594;SDS011;18200;48.726;8.892;2024-01-25T05:17:39;30.10;;;5.40;;
31594;SDS011;18200;48.726;8.892;2024-01-25T05:21:40;34.35;;;5.35;;
31594;SDS011;18200;48.726;8.892;2024-01-25T05:25:40;31.83;;;4.97;;
31594;SDS011;18200;48.726;8.892;2024-01-25T05:29:40;28.25;;;4.93;;
31594;SDS011;18200;48.726;8.892;2024-01-25T05:33:41;33.33;;;6.05;;
31594;SDS011;18200;48.726;8.892;2024-01-25T05:37:42;34.53;;;6.75;;
31594;SDS011;18200;48.726;8.892;2024-01-25T05:41:43;30.35;;;4.82;;
31594;SDS011;18200;48.726;8.892;2024-01-25T05:45:45;29.33;;;4.68;;
31594;SDS011;18200;48.726;8.892;2024-01-25T05:49:45;23.33;;;4.63;;
31594;SDS011;18200;48.726;8.892;2024-01-25T05:53:46;33.42;;;5.45;;
31594;SDS011;18200;48.726;8.892;2024-01-25T05:57:46;30.00;;;5.07;;
31594;SDS011;18200;48.726;8.892;2024-01-25T06:01:46;33.03;;;4.05;;
31594;SDS011;18200;48.726;8.892;2024-01-25T06:05:47;36.33;;;5.88;;
31594;SDS011;18200;48.726;8.892;2024-01-25T06:09:47;34.90;;;4.72;;
31594;SDS011;18200;48.726;8.892;2024-01-25T06:13:47;33.60;;;5.22;;
31594;SDS011;18200;48.726;8.892;2024-01-25T06:17:48;37.92;;;5.25;;
31594;SDS011;18200;48.726;8.892;2024-01-25T06:21:49;24.42;;;5.07;;
31594;SDS011;18200;48.726;8.892;2024-01-25T06:25:50;31.67;;;4.93;;
31594;SDS011;18200;48.726;8.892;2024-01-25T06:29:50;28.15;;;4.78;;
31594;SDS011;18200;48.726;8.892;2024-01-25T06:33:51;25.60;;;5.18;;
31594;SDS011;18200;48.726;8.892;2024-01-25T06:37:52;30.73;;;5.85;;
31594;SDS011;18200;48.726;8.892;2024-01-25T06:41:53;36.03;;;5.38;;
31594;SDS011;18200;48.726;8.892;2024-01-25T06:45:53;27.70;;;6.13;;
31594;SDS011;18200;48.726;8.892;2024-01-25T06:49:53;29.50;;;5.53;;
31594;SDS011;18200;48.726;8.892;2024-01-25T06:53:54;31.88;;;6.18;;
31594;SDS011;18200;48.726;8.892;2024-01-25T06:57:54;29.00;;;5.00;;
31594;SDS011;18200;48.726;8.892;2024-01-25T07:01:54;27.25;;;5.13;;
31594;SDS011;18200;48.726;8.892;2024-01-25T07:05:55;30.15;;;5.25;;
31594;SDS011;18200;48.726;8.892;2024-01-25T07:09:55;35.70;;;5.70;;
31594;SDS011;18200;48.726;8.892;2024-01-25T07:13:56;42.50;;;6.00;;
31594;SDS011;18200;48.726;8.892;2024-01-25T07:17:56;40.72;;;5.18;;
31594;SDS011;18200;48.726;8.892;2024-01-25T07:21:56;27.65;;;4.68;;
31594;SDS011;18200;48.726;8.892;2024-01-25T07:25:58;30.35;;;6.20;;
31594;SDS011;18200;48.726;8.892;2024-01-25T07:29:58;31.27;;;6.50;;
31594;SDS011;18200;48.726;8.892;2024-01-25T07:33:58;28.63;;;5.70;;
31594;SDS011;18200;48.726;8.892;2024-01-25T07:37:59;28.75;;;5.10;;
31594;SDS011;18200;48.726;8.892;2024-01-25T07:41:59;26.92;;;5.13;;
31594;SDS011;18200;48.726;8.892;2024-01-25T07:46:00;32.42;;;5.35;;
31594;SDS011;18200;48.726;8.892;2024-01-25T07:50:00;41.15;;;6.65;;
31594;SDS011;18200;48.726;8.892;2024-01-25T07:54:01;33.60;;;6.05;;
31594;SDS011;18200;48.726;8.892;2024-01-25T07:58:02;27.77;;;5.75;;
31594;SDS011;18200;48.726;8.892;2024-01-25T08:02:02;37.35;;;6.75;;
31594;SDS011;18200;48.726;8.892;2024-01-25T08:06:03;33.92;;;6.13;;
31594;SDS011;18200;48.726;8.892;2024-01-25T08:10:04;34.40;;;7.20;;
31594;SDS011;18200;48.726;8.892;2024-01-25T08:14:05;31.73;;;6.25;;
31594;SDS011;18200;48.726;8.892;2024-01-25T08:18:06;32.78;;;7.35;;
31594;SDS011;18200;48.726;8.892;2024-01-25T08:22:06;34.25;;;5.95;;
31594;SDS011;18200;48.726;8.892;2024-01-25T08:26:07;38.13;;;10.40;;
31594;SDS011;18200;48.726;8.892;2024-01-25T08:30:12;25.23;;;5.32;;
31594;SDS011;18200;48.726;8.892;2024-01-25T08:34:13;28.02;;;5.20;;
31594;SDS011;18200;48.726;8.892;2024-01-25T08:38:13;28.50;;;4.97;;
31594;SDS011;18200;48.726;8.892;2024-01-25T08:42:13;34.47;;;4.80;;
31594;SDS011;18200;48.726;8.892;2024-01-25T08:46:14;39.28;;;6.70;;
31594;SDS011;18200;48.726;8.892;2024-01-25T08:50:18;29.27;;;5.38;;
31594;SDS011;18200;48.726;8.892;2024-01-25T08:54:18;19.05;;;3.92;;
31594;SDS011;18200;48.726;8.892;2024-01-25T08:58:19;22.73;;;4.13;;
31594;SDS011;18200;48.726;8.892;2024-01-25T09:02:20;23.80;;;4.82;;
31594;SDS011;18200;48.726;8.892;2024-01-25T09:06:22;27.00;;;4.13;;
31594;SDS011;18200;48.726;8.892;2024-01-25T09:10:22;26.63;;;4.68;;
31594;SDS011;18200;48.726;8.892;2024-01-25T09:14:23;27.33;;;4.90;;
31594;SDS011;18200;48.726;8.892;2024-01-25T09:18:23;29.52;;;4.85;;
31594;SDS011;18200;48.726;8.892;2024-01-25T09:22:23;33.38;;;5.18;;
31594;SDS011;18200;48.726;8.892;2024-01-25T09:26:24;26.92;;;5.55;;
31594;SDS011;18200;48.726;8.892;2024-01-25T09:30:24;26.50;;;4.47;;
31594;SDS011;18200;48.726;8.892;2024-01-25T09:34:24;27.70;;;4.53;;
31594;SDS011;18200;48.726;8.892;2024-01-25T09:38:26;29.42;;;5.05;;
31594;SDS011;18200;48.726;8.892;2024-01-25T09:42:26;28.27;;;4.93;;
31594;SDS011;18200;48.726;8.892;2024-01-25T09:46:26;31.35;;;4.00;;
31594;SDS011;18200;48.726;8.892;2024-01-25T09:50:27;29.13;;;3.97;;
31594;SDS011;18200;48.726;8.892;2024-01-25T09:54:34;27.30;;;3.97;;
31594;SDS011;18200;48.726;8.892;2024-01-25T09:58:39;15.63;;;3.55;;
31594;SDS011;18200;48.726;8.892;2024-01-25T10:02:41;26.17;;;4.25;;
31594;SDS011;18200;48.726;8.892;2024-01-25T10:06:42;25.33;;;4.70;;
31594;SDS011;18200;48.726;8.892;2024-01-25T10:10:42;28.00;;;4.05;;
31594;SDS011;18200;48.726;8.892;2024-01-25T10:14:44;23.30;;;3.70;;
31594;SDS011;18200;48.726;8.892;2024-01-25T10:18:48;20.88;;;3.50;;
31594;SDS011;18200;48.726;8.892;2024-01-25T10:22:48;25.42;;;3.88;;
31594;SDS011;18200;48.726;8.892;2024-01-25T10:26:49;27.45;;;3.80;;
31594;SDS011;18200;48.726;8.892;2024-01-25T10:30:49;24.48;;;4.38;;
31594;SDS011;18200;48.726;8.892;2024-01-25T10:34:50;20.55;;;3.60;;
31594;SDS011;18200;48.726;8.892;2024-01-25T10:38:51;27.70;;;3.25;;
31594;SDS011;18200;48.726;8.892;2024-01-25T10:42:53;21.92;;;3.85;;
31594;SDS011;18200;48.726;8.892;2024-01-25T10:46:54;21.52;;;3.80;;
31594;SDS011;18200;48.726;8.892;2024-01-25T10:50:55;20.15;;;3.63;;
31594;SDS011;18200;48.726;8.892;2024-01-25T10:54:57;22.38;;;5.30;;
31594;SDS011;18200;48.726;8.892;2024-01-25T10:58:59;22.13;;;4.63;;
31594;SDS011;18200;48.726;8.892;2024-01-25T11:03:00;19.17;;;3.75;;
31594;SDS011;18200;48.726;8.892;2024-01-25T11:07:04;16.63;;;3.67;;
31594;SDS011;18200;48.726;8.892;2024-01-25T11:11:08;17.85;;;3.47;;
31594;SDS011;18200;48.726;8.892;2024-01-25T11:15:11;16.90;;;2.83;;
31594;SDS011;18200;48.726;8.892;2024-01-25T11:19:21;16.00;;;3.63;;
31594;SDS011;18200;48.726;8.892;2024-01-25T11:23:22;18.90;;;3.20;;
31594;SDS011;18200;48.726;8.892;2024-01-25T11:27:22;17.92;;;2.80;;
31594;SDS011;18200;48.726;8.892;2024-01-25T11:31:23;18.45;;;3.88;;
31594;SDS011;18200;48.726;8.892;2024-01-25T11:35:23;13.07;;;2.72;;
31594;SDS011;18200;48.726;8.892;2024-01-25T11:39:24;16.58;;;3.05;;
31594;SDS011;18200;48.726;8.892;2024-01-25T11:43:24;15.73;;;3.05;;
31594;SDS011;18200;48.726;8.892;2024-01-25T11:47:25;11.77;;;2.83;;
31594;SDS011;18200;48.726;8.892;2024-01-25T11:51:25;20.77;;;2.72;;
31594;SDS011;18200;48.726;8.892;2024-01-25T11:55:25;16.30;;;2.78;;
31594;SDS011;18200;48.726;8.892;2024-01-25T11:59:26;17.80;;;2.58;;
31594;SDS011;18200;48.726;8.892;2024-01-25T12:03:26;14.75;;;2.80;;
31594;SDS011;18200;48.726;8.892;2024-01-25T12:07:27;16.23;;;4.03;;
31594;SDS011;18200;48.726;8.892;2024-01-25T12:11:29;18.30;;;4.25;;
31594;SDS011;18200;48.726;8.892;2024-01-25T12:15:32;16.25;;;4.20;;
31594;SDS011;18200;48.726;8.892;2024-01-25T12:19:32;18.48;;;2.92;;
31594;SDS011;18200;48.726;8.892;2024-01-25T12:23:37;12.00;;;2.60;;
31594;SDS011;18200;48.726;8.892;2024-01-25T12:27:39;12.93;;;2.33;;
31594;SDS011;18200;48.726;8.892;2024-01-25T12:31:41;11.88;;;2.22;;
31594;SDS011;18200;48.726;8.892;2024-01-25T12:35:41;15.23;;;2.58;;
31594;SDS011;18200;48.726;8.892;2024-01-25T12:39:41;14.23;;;3.08;;
31594;SDS011;18200;48.726;8.892;2024-01-25T12:43:42;19.50;;;3.03;;
31594;SDS011;18200;48.726;8.892;2024-01-25T12:47:42;14.25;;;2.90;;
31594;SDS011;18200;48.726;8.892;2024-01-25T12:51:43;13.55;;;2.67;;
31594;SDS011;18200;48.726;8.892;2024-01-25T12:55:43;14.48;;;2.58;;
31594;SDS011;18200;48.726;8.892;2024-01-25T12:59:44;16.30;;;2.90;;
31594;SDS011;18200;48.726;8.892;2024-01-25T13:03:45;11.80;;;2.40;;
31594;SDS011;18200;48.726;8.892;2024-01-25T13:07:47;14.93;;;2.92;;
31594;SDS011;18200;48.726;8.892;2024-01-25T13:11:47;16.70;;;3.92;;
31594;SDS011;18200;48.726;8.892;2024-01-25T13:15:48;11.50;;;2.50;;
31594;SDS011;18200;48.726;8.892;2024-01-25T13:19:48;11.48;;;2.58;;
31594;SDS011;18200;48.726;8.892;2024-01-25T13:23:48;14.32;;;3.00;;
31594;SDS011;18200;48.726;8.892;2024-01-25T13:27:49;11.73;;;2.58;;
31594;SDS011;18200;48.726;8.892;2024-01-25T13:31:49;9.32;;;2.25;;
31594;SDS011;18200;48.726;8.892;2024-01-25T13:35:49;10.68;;;2.40;;
31594;SDS011;18200;48.726;8.892;2024-01-25T13:39:50;15.48;;;2.50;;
31594;SDS011;18200;48.726;8.892;2024-01-25T13:43:50;15.32;;;3.20;;
31594;SDS011;18200;48.726;8.892;2024-01-25T13:47:50;15.00;;;3.90;;
31594;SDS011;18200;48.726;8.892;2024-01-25T13:51:51;8.23;;;2.40;;
31594;SDS011;18200;48.726;8.892;2024-01-25T13:55:51;15.60;;;2.78;;
31594;SDS011;18200;48.726;8.892;2024-01-25T13:59:51;11.45;;;2.88;;
31594;SDS011;18200;48.726;8.892;2024-01-25T14:03:52;14.63;;;2.85;;
31594;SDS011;18200;48.726;8.892;2024-01-25T14:07:52;13.68;;;2.25;;
31594;SDS011;18200;48.726;8.892;2024-01-25T14:11:53;10.40;;;2.75;;
31594;SDS011;18200;48.726;8.892;2024-01-25T14:15:54;10.70;;;2.40;;
31594;SDS011;18200;48.726;8.892;2024-01-25T14:19:55;15.95;;;3.45;;
31594;SDS011;18200;48.726;8.892;2024-01-25T14:23:55;10.45;;;1.98;;
31594;SDS011;18200;48.726;8.892;2024-01-25T14:27:56;11.80;;;2.13;;
31594;SDS011;18200;48.726;8.892;2024-01-25T14:31:56;11.60;;;2.92;;
31594;SDS011;18200;48.726;8.892;2024-01-25T14:35:57;11.10;;;3.33;;
31594;SDS011;18200;48.726;8.892;2024-01-25T14:39:57;11.10;;;3.08;;
31594;SDS011;18200;48.726;8.892;2024-01-25T14:43:58;11.88;;;2.72;;
31594;SDS011;18200;48.726;8.892;2024-01-25T14:47:59;12.98;;;2.53;;
31594;SDS011;18200;48.726;8.892;2024-01-25T14:51:59;11.55;;;2.28;;
31594;SDS011;18200;48.726;8.892;2024-01-25T14:56:00;8.65;;;2.20;;
31594;SDS011;18200;48.726;8.892;2024-01-25T15:00:01;10.18;;;2.50;;
31594;SDS011;18200;48.726;8.892;2024-01-25T15:04:05;13.38;;;2.78;;
31594;SDS011;18200;48.726;8.892;2024-01-25T15:08:06;13.15;;;2.63;;
31594;SDS011;18200;48.726;8.892;2024-01-25T15:12:07;17.70;;;3.17;;
31594;SDS011;18200;48.726;8.892;2024-01-25T15:16:08;14.10;;;3.00;;
31594;SDS011;18200;48.726;8.892;2024-01-25T15:20:09;14.70;;;2.63;;
31594;SDS011;18200;48.726;8.892;2024-01-25T15:24:09;10.85;;;2.63;;
31594;SDS011;18200;48.726;8.892;2024-01-25T15:28:10;10.82;;;2.80;;
31594;SDS011;18200;48.726;8.892;2024-01-25T15:32:10;15.70;;;3.42;;
31594;SDS011;18200;48.726;8.892;2024-01-25T15:36:11;16.17;;;2.88;;
31594;SDS011;18200;48.726;8.892;2024-01-25T15:40:11;10.20;;;2.70;;
31594;SDS011;18200;48.726;8.892;2024-01-25T15:44:12;17.23;;;4.90;;
31594;SDS011;18200;48.726;8.892;2024-01-25T15:48:12;8.15;;;3.05;;
31594;SDS011;18200;48.726;8.892;2024-01-25T15:52:13;11.20;;;2.90;;
31594;SDS011;18200;48.726;8.892;2024-01-25T15:56:13;16.52;;;3.25;;
31594;SDS011;18200;48.726;8.892;2024-01-25T16:00:14;11.23;;;2.70;;
31594;SDS011;18200;48.726;8.892;2024-01-25T16:04:16;7.55;;;2.28;;
31594;SDS011;18200;48.726;8.892;2024-01-25T16:08:16;12.23;;;4.22;;
31594;SDS011;18200;48.726;8.892;2024-01-25T16:12:16;11.93;;;3.90;;
31594;SDS011;18200;48.726;8.892;2024-01-25T16:16:18;9.50;;;3.25;;
31594;SDS011;18200;48.726;8.892;2024-01-25T16:20:19;18.52;;;5.00;;
31594;SDS011;18200;48.726;8.892;2024-01-25T16:24:21;13.73;;;3.50;;
31594;SDS011;18200;48.726;8.892;2024-01-25T16:28:21;11.13;;;3.50;;
31594;SDS011;18200;48.726;8.892;2024-01-25T16:32:22;13.60;;;3.17;;
31594;SDS011;18200;48.726;8.892;2024-01-25T16:36:22;10.38;;;2.60;;
31594;SDS011;18200;48.726;8.892;2024-01-25T16:40:22;15.75;;;3.05;;
31594;SDS011;18200;48.726;8.892;2024-01-25T16:44:23;17.65;;;6.07;;
31594;SDS011;18200;48.726;8.892;2024-01-25T16:48:23;20.73;;;7.30;;
31594;SDS011;18200;48.726;8.892;2024-01-25T16:52:23;15.13;;;5.90;;
31594;SDS011;18200;48.726;8.892;2024-01-25T16:56:24;22.50;;;6.63;;
31594;SDS011;18200;48.726;8.892;2024-01-25T17:00:25;19.17;;;7.65;;
31594;SDS011;18200;48.726;8.892;2024-01-25T17:04:28;16.95;;;5.80;;
31594;SDS011;18200;48.726;8.892;2024-01-25T17:08:28;17.40;;;5.57;;
31594;SDS011;18200;48.726;8.892;2024-01-25T17:12:29;18.83;;;4.80;;
31594;SDS011;18200;48.726;8.892;2024-01-25T17:16:29;16.52;;;5.93;;
31594;SDS011;18200;48.726;8.892;2024-01-25T17:20:29;19.60;;;5.57;;
31594;SDS011;18200;48.726;8.892;2024-01-25T17:24:31;18.80;;;5.30;;
31594;SDS011;18200;48.726;8.892;2024-01-25T17:28:31;19.10;;;7.38;;
31594;SDS011;18200;48.726;8.892;2024-01-25T17:32:31;26.50;;;10.85;;
31594;SDS011;18200;48.726;8.892;2024-01-25T17:36:32;20.85;;;6.85;;
31594;SDS011;18200;48.726;8.892;2024-01-25T17:40:32;17.73;;;6.10;;
31594;SDS011;18200;48.726;8.892;2024-01-25T17:44:32;14.02;;;4.20;;
31594;SDS011;18200;48.726;8.892;2024-01-25T17:48:33;9.57;;;4.65;;
31594;SDS011;18200;48.726;8.892;2024-01-25T17:52:34;20.95;;;8.57;;
31594;SDS011;18200;48.726;8.892;2024-01-25T17:56:38;14.32;;;5.43;;
31594;SDS011;18200;48.726;8.892;2024-01-25T18:00:39;9.13;;;2.85;;
31594;SDS011;18200;48.726;8.892;2024-01-25T18:04:40;7.28;;;2.40;;
31594;SDS011;18200;48.726;8.892;2024-01-25T18:08:40;11.95;;;4.10;;
31594;SDS011;18200;48.726;8.892;2024-01-25T18:12:40;13.40;;;6.05;;
31594;SDS011;18200;48.726;8.892;2024-01-25T18:16:41;16.40;;;8.27;;
31594;SDS011;18200;48.726;8.892;2024-01-25T18:20:41;15.30;;;9.73;;
31594;SDS011;18200;48.726;8.892;2024-01-25T18:24:42;22.20;;;11.57;;
31594;SDS011;18200;48.726;8.892;2024-01-25T18:28:42;18.40;;;7.55;;
31594;SDS011;18200;48.726;8.892;2024-01-25T18:32:42;11.88;;;5.40;;
31594;SDS011;18200;48.726;8.892;2024-01-25T18:36:44;13.63;;;5.53;;
31594;SDS011;18200;48.726;8.892;2024-01-25T18:40:44;10.23;;;5.05;;
31594;SDS011;18200;48.726;8.892;2024-01-25T18:44:44;11.43;;;6.97;;
31594;SDS011;18200;48.726;8.892;2024-01-25T18:48:45;13.98;;;6.32;;
31594;SDS011;18200;48.726;8.892;2024-01-25T18:52:45;11.40;;;4.47;;
31594;SDS011;18200;48.726;8.892;2024-01-25T18:56:46;15.23;;;4.93;;
31594;SDS011;18200;48.726;8.892;2024-01-25T19:00:46;11.95;;;6.20;;
31594;SDS011;18200;48.726;8.892;2024-01-25T19:04:47;24.13;;;10.32;;
31594;SDS011;18200;48.726;8.892;2024-01-25T19:08:49;11.85;;;5.78;;
31594;SDS011;18200;48.726;8.892;2024-01-25T19:12:49;13.25;;;4.95;;
31594;SDS011;18200;48.726;8.892;2024-01-25T19:16:50;12.35;;;5.70;;
31594;SDS011;18200;48.726;8.892;2024-01-25T19:20:50;12.35;;;6.97;;
31594;SDS011;18200;48.726;8.892;2024-01-25T19:24:51;62.75;;;31.73;;
31594;SDS011;18200;48.726;8.892;2024-01-25T19:28:51;29.70;;;15.15;;
31594;SDS011;18200;48.726;8.892;2024-01-25T19:32:52;13.13;;;6.72;;
31594;SDS011;18200;48.726;8.892;2024-01-25T19:36:52;14.38;;;5.47;;
31594;SDS011;18200;48.726;8.892;2024-01-25T19:40:53;10.07;;;5.22;;
31594;SDS011;18200;48.726;8.892;2024-01-25T19:44:53;15.50;;;6.90;;
31594;SDS011;18200;48.726;8.892;2024-01-25T19:48:54;21.27;;;11.63;;
31594;SDS011;18200;48.726;8.892;2024-01-25T19:52:54;14.35;;;6.70;;
31594;SDS011;18200;48.726;8.892;2024-01-25T19:56:55;13.77;;;6.18;;
31594;SDS011;18200;48.726;8.892;2024-01-25T20:00:57;22.35;;;8.93;;
31594;SDS011;18200;48.726;8.892;2024-01-25T20:04:58;16.98;;;7.32;;
31594;SDS011;18200;48.726;8.892;2024-01-25T20:08:59;30.67;;;14.48;;
31594;SDS011;18200;48.726;8.892;2024-01-25T20:12:59;35.13;;;25.25;;
31594;SDS011;18200;48.726;8.892;2024-01-25T20:17:00;27.83;;;18.35;;
31594;SDS011;18200;48.726;8.892;2024-01-25T20:21:00;19.90;;;11.02;;
31594;SDS011;18200;48.726;8.892;2024-01-25T20:25:01;15.02;;;10.07;;
31594;SDS011;18200;48.726;8.892;2024-01-25T20:29:01;13.57;;;8.80;;
31594;SDS011;18200;48.726;8.892;2024-01-25T20:33:02;14.85;;;7.95;;
31594;SDS011;18200;48.726;8.892;2024-01-25T20:37:04;19.13;;;9.48;;
31594;SDS011;18200;48.726;8.892;2024-01-25T20:41:04;20.63;;;9.07;;
31594;SDS011;18200;48.726;8.892;2024-01-25T20:45:04;28.17;;;15.13;;
31594;SDS011;18200;48.726;8.892;2024-01-25T20:49:05;25.88;;;15.20;;
31594;SDS011;18200;48.726;8.892;2024-01-25T20:53:06;14.82;;;7.20;;
31594;SDS011;18200;48.726;8.892;2024-01-25T20:57:06;12.23;;;6.85;;
31594;SDS011;18200;48.726;8.892;2024-01-25T21:01:07;15.70;;;8.65;;
31594;SDS011;18200;48.726;8.892;2024-01-25T21:05:08;13.57;;;6.63;;
31594;SDS011;18200;48.726;8.892;2024-01-25T21:09:09;10.55;;;6.07;;
31594;SDS011;18200;48.726;8.892;2024-01-25T21:13:09;15.73;;;6.60;;
31594;SDS011;18200;48.726;8.892;2024-01-25T21:17:10;11.60;;;6.53;;
31594;SDS011;18200;48.726;8.892;2024-01-25T21:21:10;19.70;;;12.07;;
31594;SDS011;18200;48.726;8.892;2024-01-25T21:25:13;28.42;;;16.20;;
31594;SDS011;18200;48.726;8.892;2024-01-25T21:29:14;57.63;;;37.97;;
31594;SDS011;18200;48.726;8.892;2024-01-25T21:33:14;28.63;;;17.27;;
31594;SDS011;18200;48.726;8.892;2024-01-25T21:37:14;27.08;;;16.15;;
31594;SDS011;18200;48.726;8.892;2024-01-25T21:41:15;24.80;;;15.55;;
31594;SDS011;18200;48.726;8.892;2024-01-25T21:45:15;15.55;;;9.75;;
31594;SDS011;18200;48.726;8.892;2024-01-25T21:49:15;17.25;;;9.80;;
31594;SDS011;18200;48.726;8.892;2024-01-25T21:53:18;13.30;;;8.70;;
31594;SDS011;18200;48.726;8.892;2024-01-25T21:57:18;15.57;;;7.68;;
31594;SDS011;18200;48.726;8.892;2024-01-25T22:01:19;12.35;;;7.97;;
31594;SDS011;18200;48.726;8.892;2024-01-25T22:05:19;11.77;;;7.25;;
31594;SDS011;18200;48.726;8.892;2024-01-25T22:09:20;14.48;;;9.23;;
31594;SDS011;18200;48.726;8.892;2024-01-25T22:13:20;13.65;;;7.75;;
31594;SDS011;18200;48.726;8.892;2024-01-25T22:17:20;15.20;;;8.85;;
31594;SDS011;18200;48.726;8.892;2024-01-25T22:21:21;14.77;;;8.95;;
31594;SDS011;18200;48.726;8.892;2024-01-25T22:25:21;12.13;;;8.77;;
31594;SDS011;18200;48.726;8.892;2024-01-25T22:29:21;13.00;;;7.95;;
31594;SDS011;18200;48.726;8.892;2024-01-25T22:33:22;13.45;;;9.07;;
31594;SDS011;18200;48.726;8.892;2024-01-25T22:37:22;12.63;;;9.52;;
31594;SDS011;18200;48.726;8.892;2024-01-25T22:41:22;13.13;;;8.95;;
31594;SDS011;18200;48.726;8.892;2024-01-25T22:45:24;17.33;;;9.23;;
31594;SDS011;18200;48.726;8.892;2024-01-25T22:49:24;12.38;;;7.47;;
31594;SDS011;18200;48.726;8.892;2024-01-25T22:53:24;14.80;;;8.77;;
31594;SDS011;18200;48.726;8.892;2024-01-25T22:57:25;13.80;;;8.75;;
31594;SDS011;18200;48.726;8.892;2024-01-25T23:01:25;14.05;;;9.25;;
31594;SDS011;18200;48.726;8.892;2024-01-25T23:05:25;16.70;;;9.77;;
31594;SDS011;18200;48.726;8.892;2024-01-25T23:09:26;14.90;;;9.43;;
31594;SDS011;18200;48.726;8.892;2024-01-25T23:13:26;15.65;;;9.25;;
31594;SDS011;18200;48.726;8.892;2024-01-25T23:17:26;15.95;;;9.30;;
31594;SDS011;18200;48.726;8.892;2024-01-25T23:21:27;13.57;;;9.07;;
31594;SDS011;18200;48.726;8.892;2024-01-25T23:25:28;13.32;;;8.68;;
31594;SDS011;18200;48.726;8.892;2024-01-25T23:29:29;12.55;;;8.40;;
31594;SDS011;18200;48.726;8.892;2024-01-25T23:33:29;15.35;;;9.80;;
31594;SDS011;18200;48.726;8.892;2024-01-25T23:37:30;14.48;;;9.20;;
31594;SDS011;18200;48.726;8.892;2024-01-25T23:41:31;15.02;;;8.82;;
31594;SDS011;18200;48.726;8.892;2024-01-25T23:45:33;12.93;;;8.57;;